Time;durP1;ratioP1;P1;durP2;ratioP2;P2;SDS_P1;SDS_P2;PMS_P1;PMS_P2;Temp;Humidity;BMP_temperature;BMP_pressure;BME280_temperature;BME280_humidity;BME280_pressure;Samples;Min_cycle;Max_cycle;Signal;HPM_P1;HPM_P2
2022/09/21 00:01:40;;;;;;;0.60;0.60;;;;;;;7.58;84.43;100036.31;5054929;28;20041;-64
2022/09/21 00:04:11;;;;;;;1.40;1.30;;;;;;;7.54;84.36;100034.53;5055128;28;20061;-64
2022/09/21 00:06:41;;;;;;;1.95;1.38;;;;;;;7.58;84.96;100031.22;5055085;28;20409;-64
2022/09/21 00:09:09;;;;;;;1.63;1.45;;;;;;;7.65;85.34;100034.72;5054824;28;20045;-64
2022/09/21 00:11:38;;;;;;;1.30;1.13;;;;;;;7.71;84.70;100032.25;5055288;28;20492;-64
2022/09/21 00:14:09;;;;;;;0.45;0.45;;;;;;;7.73;84.96;100026.38;5054966;28;20041;-64
2022/09/21 00:16:39;;;;;;;7.22;1.55;;;;;;;7.67;84.25;100035.59;5055006;28;20118;-64
2022/09/21 00:19:08;;;;;;;0.77;0.73;;;;;;;7.65;84.11;100033.03;5055180;28;20397;-64
2022/09/21 00:21:38;;;;;;;0.65;0.65;;;;;;;7.71;84.44;100033.13;5054707;28;20037;-65
2022/09/21 00:24:08;;;;;;;0.77;0.77;;;;;;;7.70;84.85;100026.31;5054497;28;20079;-64
2022/09/21 00:26:36;;;;;;;0.52;0.52;;;;;;;7.79;85.23;100041.72;5054956;28;20047;-64
2022/09/21 00:29:06;;;;;;;1.23;1.13;;;;;;;7.76;84.38;100036.59;5054387;28;20071;-64
2022/09/21 00:31:35;;;;;;;0.68;0.68;;;;;;;7.72;85.28;100050.09;5054716;28;20041;-64
2022/09/21 00:34:06;;;;;;;1.37;1.10;;;;;;;7.66;85.15;100049.97;5054223;28;20037;-63
2022/09/21 00:36:37;;;;;;;0.45;0.45;;;;;;;7.68;84.69;100044.94;5054613;28;20140;-65
2022/09/21 00:39:05;;;;;;;0.60;0.60;;;;;;;7.72;84.92;100039.94;5054557;28;20131;-64
2022/09/21 00:41:34;;;;;;;0.88;0.80;;;;;;;7.74;84.61;100033.19;5054137;28;20049;-63
2022/09/21 00:44:25;;;;;;;0.90;0.90;;;;;;;7.61;85.10;100036.34;5054133;28;20123;-64
2022/09/21 00:46:57;;;;;;;0.52;0.52;;;;;;;7.60;84.88;100034.63;5053997;28;20075;-64
2022/09/21 00:49:27;;;;;;;0.70;0.70;;;;;;;7.62;85.35;100040.59;5054435;28;20075;-64
2022/09/21 00:52:03;;;;;;;0.50;0.50;;;;;;;7.58;85.16;100036.31;5054012;28;20049;-64
2022/09/21 00:54:37;;;;;;;0.88;0.85;;;;;;;7.51;85.53;100028.56;5053929;28;20158;-64
2022/09/21 00:57:06;;;;;;;2.00;1.35;;;;;;;7.54;85.66;100039.59;5053414;28;20051;-65
2022/09/21 00:59:38;;;;;;;0.80;0.80;;;;;;;7.56;85.45;100048.09;5054123;28;20045;-64
2022/09/21 01:02:08;;;;;;;0.98;0.98;;;;;;;7.59;86.05;100045.63;5053864;28;20045;-64
2022/09/21 01:04:38;;;;;;;0.50;0.50;;;;;;;7.62;85.82;100048.22;5053714;28;20052;-64
2022/09/21 01:07:11;;;;;;;1.10;0.73;;;;;;;7.55;85.51;100036.25;5054210;28;20076;-64
2022/09/21 01:09:42;;;;;;;2.80;1.70;;;;;;;7.53;86.11;100043.00;5054078;28;20045;-64
2022/09/21 01:12:29;;;;;;;0.50;0.50;;;;;;;7.58;85.50;100036.31;5053706;28;20139;-64
2022/09/21 01:15:15;;;;;;;0.50;0.50;;;;;;;7.51;85.72;100031.91;5053939;28;20045;-64
2022/09/21 01:17:49;;;;;;;5.93;1.15;;;;;;;7.49;85.34;100033.59;5053642;28;20559;-64
2022/09/21 01:20:48;;;;;;;0.77;0.77;;;;;;;7.49;85.19;100036.13;5053563;28;20091;-64
2022/09/21 01:23:36;;;;;;;2.17;1.27;;;;;;;7.53;85.41;100032.81;5053553;28;20488;-63
2022/09/21 01:26:16;;;;;;;0.70;0.50;;;;;;;7.47;85.57;100037.78;5053784;28;20049;-62
2022/09/21 01:29:08;;;;;;;0.70;0.70;;;;;;;7.40;85.57;100035.97;5053444;28;20037;-64
2022/09/21 01:31:42;;;;;;;0.98;0.90;;;;;;;7.25;85.24;100031.47;5053741;28;20485;-65
2022/09/21 01:34:16;;;;;;;1.10;1.05;;;;;;;7.23;85.04;100040.75;5053670;28;20455;-65
2022/09/21 01:36:48;;;;;;;0.77;0.77;;;;;;;7.27;85.51;100042.50;5053296;28;20052;-64
2022/09/21 01:39:20;;;;;;;0.70;0.70;;;;;;;7.28;85.02;100038.28;5053337;28;20045;-64
2022/09/21 01:41:53;;;;;;;0.73;0.73;;;;;;;7.21;85.79;100039.88;5053337;28;20045;-64
2022/09/21 01:44:29;;;;;;;0.60;0.60;;;;;;;7.17;85.70;100032.19;5053903;28;20477;-64
2022/09/21 01:47:01;;;;;;;1.55;1.40;;;;;;;7.20;85.97;100032.22;5053559;28;20505;-64
2022/09/21 01:49:36;;;;;;;0.80;0.80;;;;;;;7.29;84.97;100043.38;5053502;28;20048;-65
2022/09/21 01:52:22;;;;;;;0.80;0.80;;;;;;;7.40;85.38;100035.97;5053238;28;20098;-64
2022/09/21 01:54:55;;;;;;;0.82;0.82;;;;;;;7.50;85.46;100037.84;5053554;28;20127;-63
2022/09/21 01:57:31;;;;;;;1.13;1.10;;;;;;;7.54;85.82;100044.69;5053381;28;20084;-64
2022/09/21 02:00:02;;;;;;;0.35;0.35;;;;;;;7.59;86.17;100043.06;5053805;28;20041;-65
2022/09/21 02:02:44;;;;;;;1.37;1.13;;;;;;;7.59;85.50;100042.22;5053116;28;20053;-64
2022/09/21 02:05:15;;;;;;;0.90;0.90;;;;;;;7.59;85.58;100037.13;5053148;28;20053;-64
2022/09/21 02:07:44;;;;;;;1.20;1.13;;;;;;;7.59;85.64;100032.91;5055258;28;20045;-64
2022/09/21 02:10:22;;;;;;;1.85;1.33;;;;;;;7.63;85.81;100044.81;5057367;28;20052;-64
2022/09/21 02:13:00;;;;;;;1.15;1.05;;;;;;;7.67;86.19;100048.28;5057298;28;20563;-64
2022/09/21 02:15:37;;;;;;;0.90;0.85;;;;;;;7.65;85.86;100043.19;5057041;28;20045;-64
2022/09/21 02:18:12;;;;;;;1.67;1.58;;;;;;;7.63;85.99;100039.75;5057084;28;20045;-65
2022/09/21 02:20:49;;;;;;;1.58;1.48;;;;;;;7.65;85.50;100045.72;5056863;28;20045;-64
2022/09/21 02:23:24;;;;;;;0.90;0.90;;;;;;;7.69;85.61;100044.09;5057379;28;20049;-63
2022/09/21 02:25:57;;;;;;;1.95;1.60;;;;;;;7.57;85.83;100029.50;5057051;28;20496;-65
2022/09/21 02:28:36;;;;;;;1.88;1.05;;;;;;;7.63;85.22;100034.66;5056585;28;20048;-65
2022/09/21 02:31:13;;;;;;;1.17;0.97;;;;;;;7.68;85.07;100035.59;5056653;28;20489;-64
2022/09/21 02:33:53;;;;;;;1.42;1.33;;;;;;;7.68;85.41;100043.22;5057202;28;20103;-65
2022/09/21 02:36:28;;;;;;;0.57;0.57;;;;;;;7.68;85.67;100033.06;5057160;28;20057;-64
2022/09/21 02:39:05;;;;;;;0.50;0.50;;;;;;;7.65;85.43;100043.19;5056524;28;20052;-65
2022/09/21 02:41:40;;;;;;;0.57;0.57;;;;;;;7.65;85.42;100058.44;5056469;28;20053;-65
2022/09/21 02:44:18;;;;;;;0.57;0.57;;;;;;;7.64;84.52;100051.63;5056455;28;20053;-64
2022/09/21 02:46:53;;;;;;;0.47;0.47;;;;;;;7.66;85.07;100055.03;5056372;28;20497;-64
2022/09/21 02:49:28;;;;;;;0.55;0.55;;;;;;;7.67;85.50;100061.84;5056232;28;20041;-64
2022/09/21 02:52:01;;;;;;;0.95;0.95;;;;;;;7.71;85.73;100068.69;5056293;28;20052;-64
2022/09/21 02:54:33;;;;;;;1.02;0.93;;;;;;;7.75;84.93;100065.34;5056276;28;20045;-64
2022/09/21 02:57:03;;;;;;;1.05;0.65;;;;;;;7.73;84.76;100076.31;5056551;28;20041;-64
2022/09/21 02:59:32;;;;;;;0.65;0.65;;;;;;;7.69;85.66;100075.44;5056102;28;20088;-64
2022/09/21 03:02:05;;;;;;;1.63;1.40;;;;;;;7.69;84.98;100070.34;5056604;28;20587;-64
2022/09/21 03:04:34;;;;;;;0.45;0.45;;;;;;;7.72;85.46;100064.47;5056096;28;20049;-63
2022/09/21 03:07:03;;;;;;;0.70;0.70;;;;;;;7.74;85.57;100072.97;5056368;28;20045;-63
2022/09/21 03:09:32;;;;;;;0.75;0.75;;;;;;;7.67;85.39;100077.09;5056085;28;20128;-64
2022/09/21 03:12:01;;;;;;;2.10;1.60;;;;;;;7.63;85.41;100077.84;5056206;28;20056;-64
2022/09/21 03:14:31;;;;;;;3.47;1.88;;;;;;;7.63;85.98;100080.38;5056164;28;20048;-63
2022/09/21 03:17:02;;;;;;;1.65;1.55;;;;;;;7.66;85.92;100090.59;5056232;28;20468;-64
2022/09/21 03:19:30;;;;;;;0.38;0.38;;;;;;;7.67;85.77;100092.34;5054781;28;20041;-64
2022/09/21 03:21:59;;;;;;;1.02;0.85;;;;;;;7.70;85.96;100089.81;5055665;28;20052;-64
2022/09/21 03:27:07;;;;;;;0.30;0.30;;;;;;;7.75;85.55;100085.69;5055695;28;20052;-64
2022/09/21 03:29:36;;;;;;;0.43;0.43;;;;;;;7.74;86.00;100085.66;5055316;28;20045;-64
2022/09/21 03:32:07;;;;;;;0.45;0.45;;;;;;;7.46;85.91;100086.03;5055826;28;20129;-63
2022/09/21 03:34:35;;;;;;;0.55;0.55;;;;;;;7.37;85.71;100091.75;5056058;28;20052;-63
2022/09/21 03:37:06;;;;;;;0.75;0.75;;;;;;;7.38;85.94;100088.41;5055938;28;20400;-63
2022/09/21 03:39:35;;;;;;;1.38;1.27;;;;;;;7.36;85.24;100095.16;5055327;28;20507;-64
2022/09/21 03:42:04;;;;;;;0.70;0.70;;;;;;;7.28;85.34;100094.13;5055700;28;20037;-63
2022/09/21 03:44:33;;;;;;;0.70;0.70;;;;;;;7.25;85.52;100094.94;5055541;28;20057;-65
2022/09/21 03:47:02;;;;;;;0.55;0.55;;;;;;;7.25;85.34;100091.53;5055183;28;20052;-64
2022/09/21 03:49:33;;;;;;;0.82;0.80;;;;;;;7.29;85.67;100098.41;5055128;28;20068;-64
2022/09/21 03:52:02;;;;;;;0.43;0.43;;;;;;;7.26;85.81;100098.34;5055422;28;20048;-64
2022/09/21 03:54:31;;;;;;;0.60;0.60;;;;;;;7.30;85.15;100102.63;5055097;28;20051;-65
2022/09/21 03:57:00;;;;;;;1.70;0.95;;;;;;;7.40;84.89;100112.16;5054988;28;20510;-64
2022/09/21 03:59:28;;;;;;;0.40;0.40;;;;;;;7.39;85.38;100110.41;5055301;28;20041;-64
2022/09/21 04:01:57;;;;;;;0.30;0.30;;;;;;;7.39;85.59;100112.97;5055174;28;20519;-64
2022/09/21 04:04:25;;;;;;;4.50;1.42;;;;;;;7.42;84.91;100121.50;5055134;28;20459;-64
2022/09/21 04:06:55;;;;;;;1.13;1.00;;;;;;;7.40;85.89;100112.16;5054846;28;20041;-64
2022/09/21 04:09:24;;;;;;;1.38;1.25;;;;;;;7.33;85.68;100120.47;5055321;28;20118;-64
2022/09/21 04:11:53;;;;;;;1.10;1.10;;;;;;;7.31;85.14;100117.06;5054996;28;20041;-64
2022/09/21 04:14:22;;;;;;;1.00;0.90;;;;;;;7.31;85.16;100122.13;5054715;28;20045;-64
2022/09/21 04:16:50;;;;;;;0.82;0.75;;;;;;;7.34;86.40;100122.19;5054648;28;20282;-64
2022/09/21 04:19:21;;;;;;;0.60;0.60;;;;;;;7.32;85.75;100128.91;5054646;28;20042;-63
2022/09/21 04:21:50;;;;;;;1.20;1.10;;;;;;;7.28;85.67;100122.06;5054493;28;20047;-63
2022/09/21 04:24:20;;;;;;;0.70;0.70;;;;;;;7.22;85.56;100121.97;5054495;28;20127;-64
2022/09/21 04:26:49;;;;;;;0.85;0.85;;;;;;;7.08;85.82;100114.06;5054480;28;20106;-64
2022/09/21 04:29:17;;;;;;;2.28;1.20;;;;;;;7.11;85.46;100118.34;5054107;28;20057;-64
2022/09/21 04:31:46;;;;;;;0.60;0.60;;;;;;;7.13;85.59;100121.75;5054253;28;20504;-64
2022/09/21 04:34:15;;;;;;;0.55;0.55;;;;;;;7.12;86.03;100127.66;5054303;28;20511;-64
2022/09/21 04:36:44;;;;;;;0.57;0.57;;;;;;;7.08;85.56;100125.91;5054161;28;20049;-64
2022/09/21 04:39:14;;;;;;;1.23;0.85;;;;;;;6.91;85.96;100119.63;5054252;28;20045;-64
2022/09/21 04:41:44;;;;;;;2.85;1.65;;;;;;;7.03;85.83;100132.56;5054122;28;20041;-63
2022/09/21 04:44:13;;;;;;;0.85;0.85;;;;;;;7.10;86.66;100135.25;5054520;28;20045;-64
2022/09/21 04:46:42;;;;;;;0.65;0.65;;;;;;;7.16;86.59;100134.50;5054152;28;20036;-64
2022/09/21 04:49:11;;;;;;;0.60;0.60;;;;;;;7.20;85.95;100138.81;5054025;28;20052;-64
2022/09/21 04:51:39;;;;;;;1.98;1.30;;;;;;;7.26;86.22;100133.88;5053951;28;20033;-64
2022/09/21 04:54:08;;;;;;;1.55;1.45;;;;;;;7.36;86.42;100146.78;5053950;28;20392;-65
2022/09/21 04:56:37;;;;;;;1.73;1.38;;;;;;;7.43;87.27;100138.47;5054134;28;20527;-64
2022/09/21 04:59:07;;;;;;;1.70;1.40;;;;;;;7.46;86.65;100137.66;5053945;28;20041;-64
2022/09/21 05:01:35;;;;;;;2.92;1.48;;;;;;;7.55;87.57;100142.06;5053883;28;20049;-64
2022/09/21 05:04:04;;;;;;;0.60;0.60;;;;;;;7.59;87.03;100146.34;5053748;28;20515;-64
2022/09/21 05:06:34;;;;;;;0.93;0.90;;;;;;;7.67;86.85;100147.34;5053776;28;20552;-64
2022/09/21 05:11:42;;;;;;;0.52;0.52;;;;;;;7.82;87.41;100151.00;5054576;28;20476;-64
2022/09/21 05:14:12;;;;;;;2.50;1.73;;;;;;;7.78;86.58;100145.84;5053569;28;20550;-65
2022/09/21 05:16:41;;;;;;;0.80;0.75;;;;;;;7.85;87.54;100148.53;5053635;28;20049;-64
2022/09/21 05:19:10;;;;;;;1.30;1.20;;;;;;;7.88;87.25;100148.59;5053720;28;20049;-65
2022/09/21 05:21:38;;;;;;;20.90;1.50;;;;;;;7.89;87.40;100145.22;5053503;28;20091;-64
2022/09/21 05:24:07;;;;;;;0.65;0.65;;;;;;;8.02;86.83;100152.22;5053479;28;20217;-64
2022/09/21 05:26:36;;;;;;;1.33;1.23;;;;;;;8.10;87.11;100147.28;5053472;28;20041;-64
2022/09/21 05:29:05;;;;;;;2.15;1.13;;;;;;;8.07;87.30;100148.09;5053103;28;20044;-64
2022/09/21 05:31:45;;;;;;;2.22;2.03;;;;;;;8.23;87.35;100150.88;5053714;28;20047;-64
2022/09/21 05:34:33;;;;;;;2.05;1.55;;;;;;;8.37;87.01;100149.44;5053413;28;20065;-63
2022/09/21 05:37:10;;;;;;;1.50;1.15;;;;;;;8.43;86.87;100150.38;5053396;28;20049;-64
2022/09/21 05:39:40;;;;;;;1.20;1.10;;;;;;;8.50;86.66;100152.19;5053325;28;20052;-63
2022/09/21 05:42:11;;;;;;;1.85;1.40;;;;;;;8.57;86.86;100143.81;5052734;28;20051;-64
2022/09/21 05:44:40;;;;;;;0.65;0.65;;;;;;;8.68;86.81;100156.69;5053218;28;20060;-64
2022/09/21 05:47:24;;;;;;;0.50;0.50;;;;;;;8.72;86.55;100148.25;5053232;28;20044;-63
2022/09/21 05:50:01;;;;;;;2.05;0.85;;;;;;;8.69;86.93;100146.53;5053163;28;20040;-63
2022/09/21 05:52:39;;;;;;;6.90;1.58;;;;;;;8.76;86.90;100150.00;5053334;28;20061;-64
2022/09/21 05:55:17;;;;;;;0.50;0.50;;;;;;;8.85;86.99;100155.25;5053233;28;20113;-65
2022/09/21 05:57:55;;;;;;;0.50;0.50;;;;;;;8.87;86.51;100153.56;5053147;28;20069;-64
2022/09/21 06:00:25;;;;;;;0.95;0.93;;;;;;;8.92;86.90;100141.78;5053137;28;20041;-65
2022/09/21 06:03:23;;;;;;;1.70;1.60;;;;;;;9.09;87.22;100145.38;5053090;28;20052;-64
2022/09/21 06:05:52;;;;;;;1.20;1.10;;;;;;;9.26;87.20;100148.97;5053072;28;20045;-65
2022/09/21 06:08:21;;;;;;;1.20;0.80;;;;;;;9.44;87.05;100149.19;5053381;28;20552;-63
2022/09/21 06:10:50;;;;;;;1.33;0.87;;;;;;;9.55;86.99;100151.03;5052934;28;20048;-63
2022/09/21 06:13:18;;;;;;;0.40;0.40;;;;;;;9.71;87.19;100157.97;5053178;28;20500;-64
2022/09/21 06:15:47;;;;;;;0.82;0.82;;;;;;;9.86;87.18;100153.88;5053298;28;20127;-64
2022/09/21 06:18:17;;;;;;;0.88;0.75;;;;;;;9.97;87.53;100157.41;5053499;28;20072;-63
2022/09/21 06:20:46;;;;;;;0.65;0.63;;;;;;;10.13;87.22;100153.31;5062772;28;20056;-64
2022/09/21 06:23:15;;;;;;;1.30;0.98;;;;;;;10.35;87.32;100159.44;5072807;28;20033;-64
2022/09/21 06:25:43;;;;;;;0.73;0.73;;;;;;;10.52;87.29;100153.63;5055278;28;20445;-64
2022/09/21 06:28:13;;;;;;;0.77;0.77;;;;;;;10.67;86.81;100155.44;5072997;28;20040;-65
2022/09/21 06:30:43;;;;;;;1.23;0.90;;;;;;;10.76;86.66;100153.78;5072803;28;20045;-64
2022/09/21 06:33:19;;;;;;;0.35;0.35;;;;;;;10.90;86.44;100148.75;5073185;28;20053;-64
2022/09/21 06:35:54;;;;;;;0.60;0.60;;;;;;;11.10;86.10;100153.97;5073070;28;20055;-64
2022/09/21 06:38:24;;;;;;;1.45;1.20;;;;;;;11.26;85.89;100155.72;5072839;28;20057;-65
2022/09/21 06:40:53;;;;;;;0.50;0.50;;;;;;;11.37;85.57;100154.09;5072705;28;20048;-64
2022/09/21 06:43:22;;;;;;;0.73;0.73;;;;;;;11.52;85.55;100161.78;5073293;28;20430;-64
2022/09/21 06:45:54;;;;;;;0.77;0.77;;;;;;;11.67;85.22;100166.09;5072686;28;20131;-65
2022/09/21 06:48:22;;;;;;;1.48;1.00;;;;;;;11.72;84.84;100167.00;5066035;28;20121;-64
2022/09/21 06:50:56;;;;;;;1.52;0.98;;;;;;;11.78;84.60;100167.03;5070972;28;20480;-65
2022/09/21 06:53:25;;;;;;;3.42;1.85;;;;;;;11.78;83.82;100180.63;5072284;28;20060;-65
2022/09/21 06:55:54;;;;;;;0.52;0.52;;;;;;;11.78;83.60;100178.09;5075633;28;20123;-64
2022/09/21 06:58:23;;;;;;;5.38;2.47;;;;;;;11.86;83.13;100176.41;5064577;28;20090;-64
2022/09/21 07:00:51;;;;;;;1.02;0.95;;;;;;;12.02;83.08;100183.25;5073329;28;20052;-65
2022/09/21 07:03:20;;;;;;;1.40;0.88;;;;;;;12.16;83.01;100184.97;5076036;28;20094;-64
2022/09/21 07:05:50;;;;;;;2.03;1.85;;;;;;;12.24;82.55;100193.53;5076214;28;20048;-64
2022/09/21 07:08:20;;;;;;;;;;;;;;;12.26;81.96;100182.41;5076006;28;20044;-64
2022/09/21 07:11:09;;;;;;;0.40;0.40;;;;;;;12.42;81.64;100183.28;5075870;28;19931;-64
2022/09/21 07:13:37;;;;;;;0.52;0.50;;;;;;;12.65;81.01;100187.53;5075863;28;20040;-65
2022/09/21 07:16:08;;;;;;;1.00;0.95;;;;;;;12.90;80.52;100190.91;5069437;28;20114;-65
2022/09/21 07:18:37;;;;;;;0.40;0.40;;;;;;;13.07;79.60;100185.78;5060539;28;20049;-66
2022/09/21 07:21:13;;;;;;;0.40;0.40;;;;;;;13.24;77.70;100192.56;5056232;28;20049;-65
2022/09/21 07:23:44;;;;;;;0.45;0.45;;;;;;;13.36;76.84;100189.94;5056178;28;20041;-66
2022/09/21 07:26:14;;;;;;;1.48;1.35;;;;;;;13.49;75.72;100195.03;5068824;28;20147;-65
2022/09/21 07:28:42;;;;;;;0.30;0.30;;;;;;;13.51;74.73;100199.28;5072496;28;20407;-67
2022/09/21 07:31:13;;;;;;;0.40;0.40;;;;;;;13.57;74.09;100195.84;5059131;28;20056;-66
2022/09/21 07:33:43;;;;;;;0.50;0.50;;;;;;;13.66;73.82;100188.97;5055744;28;20055;-66
2022/09/21 07:36:12;;;;;;;0.35;0.35;;;;;;;13.71;73.19;100191.50;5055683;28;20052;-66
2022/09/21 07:38:42;;;;;;;0.30;0.30;;;;;;;13.78;72.92;100193.16;5059257;28;20037;-67
2022/09/21 07:41:14;;;;;;;0.50;0.50;;;;;;;13.82;71.90;100194.88;5075213;28;20044;-67
2022/09/21 07:43:42;;;;;;;0.20;0.20;;;;;;;13.83;70.80;100197.44;5075571;28;20466;-66
2022/09/21 07:46:13;;;;;;;0.57;0.57;;;;;;;13.88;70.53;100195.69;5075501;28;20118;-67
2022/09/21 07:48:42;;;;;;;0.30;0.30;;;;;;;13.98;70.83;100196.50;5073970;28;20094;-66
2022/09/21 07:51:13;;;;;;;0.60;0.50;;;;;;;14.08;70.39;100198.13;5072714;28;20044;-68
2022/09/21 07:53:44;;;;;;;0.50;0.50;;;;;;;14.14;69.42;100195.53;5054937;28;20049;-68
2022/09/21 07:56:16;;;;;;;0.38;0.38;;;;;;;14.16;68.87;100191.22;5055377;28;20049;-66
2022/09/21 08:01:24;;;;;;;0.67;0.50;;;;;;;14.25;67.58;100196.31;5055002;28;20073;-68
2022/09/21 08:03:55;;;;;;;1.38;1.27;;;;;;;14.35;67.08;100197.94;5054878;28;20369;-67
2022/09/21 08:06:25;;;;;;;0.50;0.50;;;;;;;14.48;67.46;100194.44;5059959;28;20553;-67
2022/09/21 08:08:54;;;;;;;0.30;0.30;;;;;;;14.53;66.11;100197.81;5075000;28;20049;-67
2022/09/21 08:11:29;;;;;;;0.30;0.30;;;;;;;14.48;65.15;100186.72;5073600;28;20508;-67
2022/09/21 08:13:59;;;;;;;0.38;0.38;;;;;;;14.50;65.34;100192.69;5068130;28;20048;-67
2022/09/21 08:16:29;;;;;;;0.30;0.30;;;;;;;14.55;65.34;100196.09;5054888;28;20051;-67
2022/09/21 08:18:58;;;;;;;0.50;0.50;;;;;;;14.61;64.94;100201.16;5055276;28;20387;-67
2022/09/21 08:21:27;;;;;;;0.60;0.60;;;;;;;14.69;64.37;100203.66;5067097;28;20051;-66
2022/09/21 08:23:56;;;;;;;0.50;0.50;;;;;;;14.69;64.58;100204.53;5073793;28;20059;-67
2022/09/21 08:26:27;;;;;;;0.45;0.45;;;;;;;14.71;64.28;100202.78;5074882;28;20048;-67
2022/09/21 08:28:57;;;;;;;0.30;0.30;;;;;;;14.77;63.80;100202.75;5074329;28;20480;-66
2022/09/21 08:31:26;;;;;;;3.72;1.45;;;;;;;14.86;64.40;100186.38;5068808;28;20040;-68
2022/09/21 08:33:56;;;;;;;0.38;0.38;;;;;;;15.05;64.48;100192.16;5059708;28;20399;-67
2022/09/21 08:36:25;;;;;;;0.32;0.32;;;;;;;15.24;64.06;100198.81;5074140;28;20545;-67
2022/09/21 08:38:55;;;;;;;0.20;0.20;;;;;;;15.35;63.78;100199.56;5074182;28;20036;-67
2022/09/21 08:41:36;;;;;;;0.30;0.30;;;;;;;15.19;63.59;100201.44;5074525;28;20048;-67
2022/09/21 08:44:12;;;;;;;0.50;0.50;;;;;;;15.06;63.96;100204.16;5074126;28;20052;-67
2022/09/21 08:46:43;;;;;;;0.40;0.40;;;;;;;15.07;63.81;100195.59;5072515;28;20044;-67
2022/09/21 08:49:16;;;;;;;0.73;0.73;;;;;;;15.12;63.57;100193.81;5067178;28;20040;-67
2022/09/21 08:51:50;;;;;;;0.70;0.70;;;;;;;15.24;63.55;100194.53;5073899;28;20045;-68
2022/09/21 08:54:27;;;;;;;0.30;0.30;;;;;;;15.33;63.40;100193.59;5074027;28;20045;-67
2022/09/21 08:56:58;;;;;;;0.40;0.40;;;;;;;15.37;62.45;100201.25;5074240;28;20051;-67
2022/09/21 08:59:35;;;;;;;0.22;0.22;;;;;;;15.44;61.46;100194.31;5072580;28;20045;-67
2022/09/21 09:02:22;;;;;;;0.40;0.40;;;;;;;15.43;61.26;100198.59;5062298;28;20095;-67
2022/09/21 09:05:01;;;;;;;0.40;0.40;;;;;;;15.43;60.97;100192.59;5053727;28;20094;-67
2022/09/21 09:07:53;;;;;;;0.37;0.37;;;;;;;15.31;61.08;100192.72;5054231;28;20055;-66
2022/09/21 09:10:36;;;;;;;0.30;0.30;;;;;;;15.33;60.93;100196.16;5053346;28;20278;-67
2022/09/21 09:13:25;;;;;;;0.30;0.30;;;;;;;15.48;60.32;100203.72;5061052;28;20048;-67
2022/09/21 09:16:06;;;;;;;0.30;0.30;;;;;;;15.62;59.69;100196.66;5070132;28;20055;-67
2022/09/21 09:18:43;;;;;;;1.15;1.00;;;;;;;15.75;59.63;100194.78;5073240;28;20119;-67
2022/09/21 09:21:17;;;;;;;0.40;0.40;;;;;;;15.81;60.14;100192.97;5073896;28;20060;-67
2022/09/21 09:24:03;;;;;;;0.45;0.45;;;;;;;15.77;59.48;100186.19;5073982;28;20036;-67
2022/09/21 09:26:41;;;;;;;0.20;0.20;;;;;;;15.75;59.41;100193.06;5073307;28;20062;-67
2022/09/21 09:29:21;;;;;;;0.30;0.30;;;;;;;15.57;58.62;100189.91;5073633;28;20048;-67
2022/09/21 09:31:54;;;;;;;0.30;0.30;;;;;;;15.42;58.87;100191.75;5073463;28;20128;-67
2022/09/21 09:34:29;;;;;;;0.40;0.40;;;;;;;15.51;58.84;100193.38;5073695;28;20514;-67
2022/09/21 09:37:00;;;;;;;0.70;0.70;;;;;;;15.63;58.65;100202.66;5073372;28;20053;-66
2022/09/21 09:39:30;;;;;;;0.30;0.30;;;;;;;15.67;58.74;100194.88;5073255;28;20067;-66
2022/09/21 09:42:25;;;;;;;0.57;0.50;;;;;;;15.72;59.04;100189.66;5071316;28;20174;-67
2022/09/21 09:45:17;;;;;;;0.50;0.50;;;;;;;15.74;59.02;100190.53;5073432;28;20048;-67
2022/09/21 09:47:59;;;;;;;0.32;0.32;;;;;;;15.73;58.78;100189.66;5072184;28;20079;-67
2022/09/21 09:50:32;;;;;;;0.20;0.20;;;;;;;15.88;59.26;100188.63;5053474;28;20040;-67
2022/09/21 09:53:05;;;;;;;0.30;0.30;;;;;;;16.12;59.08;100187.41;5053106;28;20045;-67
2022/09/21 09:55:38;;;;;;;0.40;0.40;;;;;;;16.29;58.36;100185.41;5053110;28;20060;-67
2022/09/21 09:58:17;;;;;;;0.30;0.30;;;;;;;16.42;57.87;100179.19;5053169;28;20048;-67
2022/09/21 10:00:52;;;;;;;0.32;0.32;;;;;;;16.51;57.46;100181.59;5053132;28;20065;-67
2022/09/21 10:03:23;;;;;;;0.30;0.30;;;;;;;16.55;57.25;100185.88;5053076;28;20049;-68
2022/09/21 10:05:53;;;;;;;0.30;0.30;;;;;;;16.65;56.84;100177.13;5053024;28;20041;-66
2022/09/21 10:08:31;;;;;;;7.38;0.75;;;;;;;16.86;56.99;100184.47;5065121;28;20040;-66
2022/09/21 10:11:00;;;;;;;0.38;0.38;;;;;;;16.85;56.26;100182.75;5073089;28;20102;-67
2022/09/21 10:13:31;;;;;;;0.40;0.40;;;;;;;16.92;55.91;100178.31;5071183;28;20442;-68
2022/09/21 10:16:05;;;;;;;0.30;0.30;;;;;;;17.00;55.69;100161.00;5072129;28;20045;-66
2022/09/21 10:18:38;;;;;;;0.40;0.40;;;;;;;16.74;55.77;100170.06;5071922;28;20052;-65
2022/09/21 10:21:09;;;;;;;0.40;0.40;;;;;;;16.51;56.43;100177.34;5073262;28;20056;-68
2022/09/21 10:23:38;;;;;;;0.95;0.82;;;;;;;16.58;56.07;100167.78;5066439;28;20399;-67
2022/09/21 10:26:10;;;;;;;0.98;0.80;;;;;;;16.61;55.66;100178.03;5073778;28;20547;-67
2022/09/21 10:28:56;;;;;;;0.40;0.40;;;;;;;16.86;55.94;100169.00;5074725;28;20072;-67
2022/09/21 10:31:28;;;;;;;0.50;0.50;;;;;;;16.93;55.04;100173.16;5037346;28;20115;-67
2022/09/21 10:34:14;;;;;;;0.30;0.30;;;;;;;17.03;54.47;100166.97;5036738;28;20132;-68
2022/09/21 10:36:50;;;;;;;0.40;0.40;;;;;;;17.18;54.27;100171.78;5036662;28;20053;-67
2022/09/21 10:39:21;;;;;;;0.70;0.63;;;;;;;17.30;53.87;100176.72;5032962;28;20037;-66
2022/09/21 10:41:54;;;;;;;1.13;0.80;;;;;;;17.31;53.73;100175.84;5032478;28;20092;-67
2022/09/21 10:44:27;;;;;;;0.30;0.30;;;;;;;17.29;53.08;100169.00;5036519;28;20053;-68
2022/09/21 10:47:01;;;;;;;0.30;0.30;;;;;;;17.39;53.59;100162.78;5035414;28;20126;-67
2022/09/21 10:49:30;;;;;;;0.60;0.60;;;;;;;17.54;52.84;100164.25;5030017;28;20447;-67
2022/09/21 10:51:59;;;;;;;0.88;0.80;;;;;;;17.69;53.14;100158.72;5022742;28;20404;-68
2022/09/21 10:54:31;;;;;;;6.45;1.75;;;;;;;17.76;53.33;100165.44;5030066;28;20125;-67
2022/09/21 10:57:04;;;;;;;0.35;0.35;;;;;;;17.61;51.87;100161.47;5025347;28;20048;-66
2022/09/21 10:59:35;;;;;;;0.70;0.70;;;;;;;17.56;52.34;100152.16;5035883;28;20045;-66
2022/09/21 11:02:29;;;;;;;0.60;0.60;;;;;;;17.71;51.63;100156.94;5033088;28;20477;-66
2022/09/21 11:05:04;;;;;;;0.50;0.50;;;;;;;17.53;51.32;100167.69;5036500;28;20450;-67
2022/09/21 11:07:41;;;;;;;0.50;0.50;;;;;;;17.05;51.53;100160.03;5036011;28;20477;-67
2022/09/21 11:10:18;;;;;;;0.75;0.75;;;;;;;16.91;51.96;100149.13;5036015;28;20049;-67
2022/09/21 11:12:59;;;;;;;0.40;0.40;;;;;;;17.27;51.85;100155.31;5036238;28;20049;-67
2022/09/21 11:15:44;;;;;;;0.65;0.55;;;;;;;17.54;51.90;100148.75;5034622;28;20048;-67
2022/09/21 11:18:22;;;;;;;0.60;0.60;;;;;;;17.74;52.89;100149.16;5035849;28;20042;-67
2022/09/21 11:20:55;;;;;;;1.45;1.27;;;;;;;17.60;52.88;100154.63;5033292;28;20391;-68
2022/09/21 11:23:41;;;;;;;0.50;0.50;;;;;;;17.43;52.97;100152.38;5033727;28;20128;-67
2022/09/21 11:26:16;;;;;;;0.45;0.43;;;;;;;17.30;53.11;100144.88;5034904;28;20037;-67
2022/09/21 11:28:52;;;;;;;0.73;0.60;;;;;;;17.49;52.20;100140.22;5033642;28;20038;-66
2022/09/21 11:31:36;;;;;;;0.65;0.65;;;;;;;17.33;51.53;100150.84;5072947;28;20389;-67
2022/09/21 11:34:26;;;;;;;0.63;0.63;;;;;;;17.10;51.99;100152.19;5073555;28;20054;-67
2022/09/21 11:37:04;;;;;;;1.10;0.85;;;;;;;16.95;52.67;100153.34;5074716;28;20041;-67
2022/09/21 11:39:45;;;;;;;0.85;0.85;;;;;;;16.88;53.28;100149.19;5074592;28;20123;-67
2022/09/21 11:42:42;;;;;;;0.40;0.40;;;;;;;16.75;53.32;100139.97;5075563;28;20453;-67
2022/09/21 11:45:28;;;;;;;0.40;0.40;;;;;;;16.61;53.60;100147.09;5075216;28;20044;-67
2022/09/21 11:48:09;;;;;;;0.60;0.60;;;;;;;16.48;54.63;100149.03;5075366;28;20068;-67
2022/09/21 11:50:53;;;;;;;0.45;0.45;;;;;;;16.32;55.46;100141.56;5075173;28;20048;-68
2022/09/21 11:53:37;;;;;;;0.85;0.65;;;;;;;16.26;55.44;100144.25;5075157;28;20041;-67
2022/09/21 11:56:23;;;;;;;0.50;0.50;;;;;;;16.29;55.08;100134.72;5075352;28;20048;-67
2022/09/21 11:59:05;;;;;;;1.38;1.27;;;;;;;16.61;54.73;100139.38;5075022;28;20066;-67
2022/09/21 12:01:48;;;;;;;3.90;0.60;;;;;;;16.98;54.48;100139.53;5075402;28;20093;-67
2022/09/21 12:04:37;;;;;;;0.32;0.32;;;;;;;17.11;53.62;100123.78;5075213;28;20040;-67
2022/09/21 12:07:17;;;;;;;;;;;;;;;16.87;53.62;100139.72;5074480;28;20058;-68